Time;durP1;ratioP1;P1;durP2;ratioP2;P2;SDS_P1;SDS_P2;PMS_P1;PMS_P2;Temp;Humidity;BMP_temperature;BMP_pressure;BME280_temperature;BME280_humidity;BME280_pressure;Samples;Min_cycle;Max_cycle;Signal;HPM_P1;HPM_P2
2023/06/20 00:01:39;;;;;;;6.53;6.03;;;20.30;99.90;;;21.25;83.15;97468.97;5194300;28;20791;-67
2023/06/20 00:04:12;;;;;;;7.35;6.85;;;20.30;99.90;;;21.31;83.35;97476.81;5198062;28;20224;-67
2023/06/20 00:06:45;;;;;;;7.45;6.95;;;20.40;99.90;;;21.35;83.11;97482.06;5197290;28;20225;-66
2023/06/20 00:09:18;;;;;;;8.05;7.38;;;20.40;99.90;;;21.34;82.92;97487.25;5194062;28;20228;-67
2023/06/20 00:11:51;;;;;;;7.38;6.88;;;20.40;99.90;;;21.35;82.69;97491.59;5198181;28;20249;-67
2023/06/20 00:14:30;;;;;;;7.43;6.93;;;20.40;99.90;;;21.36;82.92;97493.34;5195590;28;20276;-67
2023/06/20 00:17:05;;;;;;;8.23;7.63;;;20.50;99.90;;;21.35;82.73;97489.00;5198270;28;20226;-67
2023/06/20 00:19:39;;;;;;;7.35;6.80;;;20.40;99.90;;;21.37;82.81;97497.69;5200201;28;20716;-67
2023/06/20 00:22:12;;;;;;;7.35;6.70;;;20.40;99.90;;;21.36;82.53;97498.53;5195836;28;20276;-67
2023/06/20 00:24:45;;;;;;;8.20;7.47;;;20.40;99.90;;;21.35;82.62;97505.47;5193896;28;20218;-67
2023/06/20 00:27:18;;;;;;;7.88;7.38;;;20.40;99.90;;;21.38;82.47;97509.88;5198409;28;20603;-67
2023/06/20 00:29:53;;;;;;;8.32;7.72;;;20.50;99.90;;;21.38;82.59;97522.88;5192150;28;20545;-67
2023/06/20 00:32:26;;;;;;;8.38;7.78;;;20.40;99.90;;;21.39;82.30;97532.41;5197642;28;20704;-66
2023/06/20 00:34:59;;;;;;;7.53;6.93;;;20.40;99.90;;;21.33;82.42;97538.38;5194215;28;20682;-67
2023/06/20 00:37:34;;;;;;;7.53;6.93;;;20.40;99.90;;;21.34;82.32;97542.72;5199328;28;20586;-67
2023/06/20 00:40:08;;;;;;;7.03;6.53;;;20.40;99.90;;;21.37;82.45;97547.09;5199152;28;20233;-67
2023/06/20 00:42:42;;;;;;;7.75;7.15;;;20.40;99.90;;;21.33;82.43;97551.38;5196878;28;20221;-67
2023/06/20 00:45:30;;;;;;;8.18;7.43;;;20.40;99.90;;;21.35;82.43;97556.59;5191876;28;20229;-66
2023/06/20 00:48:06;;;;;;;7.88;7.28;;;20.40;99.90;;;21.40;82.70;97561.88;5193321;28;20226;-67
2023/06/20 00:50:39;;;;;;;7.45;6.90;;;20.40;99.90;;;21.46;82.97;97568.03;5189804;28;20217;-66
2023/06/20 00:53:13;;;;;;;8.13;7.53;;;20.40;99.90;;;21.52;83.41;97588.88;5199370;28;20271;-66
2023/06/20 00:55:46;;;;;;;8.27;7.68;;;20.50;99.90;;;21.45;83.80;97594.00;5193743;28;20316;-66
2023/06/20 00:58:19;;;;;;;8.38;7.78;;;20.50;99.90;;;21.45;84.40;97623.47;5197373;28;20267;-65
2023/06/20 01:00:53;;;;;;;8.02;7.43;;;20.50;99.90;;;21.72;84.16;97698.34;5192563;28;20249;-66
2023/06/20 01:03:27;;;;;;;8.15;7.57;;;20.60;99.90;;;21.79;83.69;97730.47;5199515;28;20260;-67
2023/06/20 01:06:10;;;;;;;8.38;7.57;;;20.60;99.90;;;21.62;84.84;97732.03;5199273;28;20600;-66
2023/06/20 01:08:50;;;;;;;8.48;7.78;;;20.50;99.90;;;21.56;83.68;97736.31;5196834;28;20225;-66
2023/06/20 01:11:30;;;;;;;8.45;7.85;;;20.50;99.90;;;21.59;84.28;97746.75;5198939;28;20276;-66
2023/06/20 01:14:11;;;;;;;8.73;7.93;;;20.90;99.90;;;21.80;83.12;97740.94;5196483;28;20227;-66
2023/06/20 01:16:57;;;;;;;8.82;7.97;;;21.00;99.90;;;21.92;81.73;97740.19;5194245;28;20274;-66
2023/06/20 01:19:50;;;;;;;8.55;7.75;;;21.20;99.90;;;21.90;82.00;97741.88;5199013;28;20259;-66
2023/06/20 01:22:42;;;;;;;7.43;6.82;;;21.30;99.90;;;22.01;80.89;97745.47;5199135;28;20233;-67
2023/06/20 01:25:25;;;;;;;7.82;7.10;;;21.30;99.90;;;22.09;80.69;97750.75;5193449;28;20226;-67
2023/06/20 01:28:08;;;;;;;8.48;7.68;;;21.50;99.90;;;22.09;83.20;97755.97;5196676;28;20266;-66
2023/06/20 01:30:50;;;;;;;7.82;7.18;;;21.40;99.90;;;21.94;85.31;97753.19;5194307;28;20228;-66
2023/06/20 01:33:29;;;;;;;8.50;7.90;;;21.30;99.90;;;21.91;85.81;97754.03;5195464;28;20225;-66
2023/06/20 01:36:05;;;;;;;8.25;7.65;;;21.20;99.90;;;21.80;87.67;97751.34;5194082;28;20272;-67
2023/06/20 01:38:40;;;;;;;8.27;7.47;;;21.20;99.90;;;21.72;88.14;97760.78;5197258;28;20819;-67
2023/06/20 01:41:17;;;;;;;7.47;6.88;;;21.00;99.90;;;21.62;89.30;97760.66;5200618;28;20291;-66
2023/06/20 01:43:55;;;;;;;8.77;7.97;;;20.90;99.90;;;21.48;91.62;97763.94;5202879;28;20751;-66
2023/06/20 01:46:28;;;;;;;9.07;8.38;;;20.80;99.90;;;21.46;91.78;97759.56;5196380;28;20237;-67
2023/06/20 01:49:03;;;;;;;9.18;8.27;;;20.80;99.90;;;21.34;93.65;97758.53;5201457;28;20221;-66
2023/06/20 01:51:36;;;;;;;8.52;7.82;;;20.60;99.90;;;21.11;94.45;97753.03;5202955;28;20229;-66
2023/06/20 01:54:12;;;;;;;8.68;7.82;;;20.50;99.90;;;20.95;96.02;97771.88;5202720;28;20584;-65
2023/06/20 01:56:47;;;;;;;8.25;7.43;;;20.40;99.90;;;20.75;97.13;97765.50;5201606;28;20229;-66
2023/06/20 01:59:21;;;;;;;9.20;8.40;;;20.20;99.90;;;20.70;99.92;97768.03;5201024;28;20225;-65
2023/06/20 02:01:57;;;;;;;9.25;8.45;;;20.20;99.90;;;20.72;100.00;97768.03;5200875;28;20592;-66
2023/06/20 02:04:34;;;;;;;9.60;8.73;;;20.20;99.90;;;20.56;100.00;97766.94;5200103;28;20239;-66
2023/06/20 02:07:08;;;;;;;10.50;9.60;;;20.10;99.90;;;20.42;100.00;97756.28;5199668;28;20225;-65
2023/06/20 02:09:45;;;;;;;9.95;9.05;;;20.00;99.90;;;20.31;100.00;97760.41;5199260;28;20775;-66
2023/06/20 02:12:19;;;;;;;10.00;9.07;;;19.90;99.90;;;20.26;100.00;97749.97;5200777;28;20607;-67
2023/06/20 02:14:53;;;;;;;10.68;9.88;;;19.80;99.90;;;20.18;100.00;97751.56;5196475;28;20672;-66
2023/06/20 02:17:27;;;;;;;10.55;9.75;;;19.70;99.90;;;20.11;100.00;97737.59;5199660;28;20217;-66
2023/06/20 02:20:00;;;;;;;10.30;9.40;;;19.60;99.90;;;20.00;100.00;97729.63;5201259;28;20656;-67
2023/06/20 02:22:35;;;;;;;10.20;9.40;;;19.60;99.90;;;19.99;100.00;97725.28;5195544;28;20677;-66
2023/06/20 02:25:16;;;;;;;9.88;9.13;;;19.50;99.90;;;20.00;100.00;97740.03;5196251;28;20298;-66
2023/06/20 02:27:53;;;;;;;10.85;9.85;;;19.50;99.90;;;19.98;100.00;97731.31;5198412;28;20269;-67
2023/06/20 02:30:30;;;;;;;10.85;9.85;;;19.50;99.90;;;19.88;100.00;97720.75;5194108;28;20664;-68
2023/06/20 02:33:05;;;;;;;12.00;10.95;;;19.40;99.90;;;19.89;100.00;97705.22;5197580;28;20229;-67
2023/06/20 02:35:39;;;;;;;11.40;10.45;;;19.30;99.90;;;19.75;100.00;97712.75;5193803;28;20225;-67
2023/06/20 02:38:13;;;;;;;11.43;10.45;;;19.20;99.90;;;19.70;100.00;97696.22;5198463;28;20262;-67
2023/06/20 02:40:50;;;;;;;11.75;10.75;;;19.10;99.90;;;19.62;100.00;97679.59;5200228;28;20221;-67
2023/06/20 02:43:23;;;;;;;12.32;11.32;;;19.10;99.90;;;19.53;100.00;97689.81;5199895;28;20225;-68
2023/06/20 02:46:06;;;;;;;12.35;11.15;;;19.00;99.90;;;19.61;100.00;97684.78;5196010;28;20645;-67
2023/06/20 02:48:49;;;;;;;12.52;11.52;;;19.00;99.90;;;19.61;100.00;97679.59;5199022;28;20677;-68
2023/06/20 02:51:34;;;;;;;12.10;11.10;;;19.00;99.90;;;19.40;100.00;97668.00;5200938;28;20221;-66
2023/06/20 02:54:17;;;;;;;12.98;11.88;;;18.90;99.90;;;19.46;100.00;97660.31;5199158;28;20279;-67
2023/06/20 02:56:56;;;;;;;12.40;11.40;;;18.90;99.90;;;19.44;100.00;97658.53;5192999;28;20218;-66
2023/06/20 02:59:32;;;;;;;12.63;11.50;;;18.80;99.90;;;19.42;100.00;97670.59;5199522;28;20572;-66
2023/06/20 03:02:08;;;;;;;12.82;11.73;;;18.80;99.90;;;19.48;100.00;97678.47;5196042;28;20221;-66
2023/06/20 03:04:43;;;;;;;13.40;12.30;;;18.80;99.90;;;19.51;100.00;97675.94;5197781;28;20317;-67
2023/06/20 03:07:19;;;;;;;12.73;11.52;;;18.90;99.90;;;19.52;100.00;97675.97;5201511;28;20316;-66
2023/06/20 03:09:55;;;;;;;12.95;11.80;;;18.80;99.90;;;19.59;100.00;97671.78;5195933;28;20214;-66
2023/06/20 03:12:29;;;;;;;13.20;12.10;;;18.90;99.90;;;19.61;100.00;97677.88;5195591;28;20287;-66
2023/06/20 03:15:02;;;;;;;12.50;11.50;;;18.90;99.90;;;19.56;100.00;97677.78;5195922;28;20275;-66
2023/06/20 03:17:36;;;;;;;12.88;11.60;;;18.80;99.90;;;19.60;100.00;97676.09;5200258;28;20228;-67
2023/06/20 03:20:10;;;;;;;12.35;11.35;;;18.80;99.90;;;19.64;100.00;97671.88;5198594;28;20221;-67
2023/06/20 03:22:43;;;;;;;12.38;11.32;;;18.90;99.90;;;19.63;100.00;97665.81;5199553;28;20286;-66
2023/06/20 03:25:16;;;;;;;12.75;11.70;;;18.90;99.90;;;19.54;100.00;97656.16;5196632;28;20225;-66
2023/06/20 03:27:51;;;;;;;12.88;11.70;;;18.80;99.90;;;19.58;100.00;97660.53;5194385;28;20226;-66
2023/06/20 03:30:24;;;;;;;13.20;12.10;;;18.80;99.90;;;19.56;100.00;97658.75;5198986;28;21169;-66
2023/06/20 03:32:57;;;;;;;12.07;11.07;;;18.70;99.90;;;19.51;100.00;97655.19;5200971;28;20233;-66
2023/06/20 03:35:31;;;;;;;12.18;11.13;;;18.70;99.90;;;19.55;100.00;97654.44;5197280;28;20238;-67
2023/06/20 03:38:04;;;;;;;12.60;11.60;;;18.70;99.90;;;19.48;100.00;97650.81;5198629;28;20677;-67
2023/06/20 03:40:37;;;;;;;12.30;11.30;;;18.70;99.90;;;19.55;100.00;97647.53;5193331;28;20602;-66
2023/06/20 03:43:11;;;;;;;12.75;11.65;;;18.80;99.90;;;19.60;100.00;97650.19;5193443;28;20256;-66
2023/06/20 03:45:44;;;;;;;12.70;11.50;;;18.90;99.90;;;19.59;100.00;97646.72;5195362;28;20282;-66
2023/06/20 03:48:19;;;;;;;12.50;11.50;;;18.80;99.90;;;19.58;100.00;97644.97;5199851;28;20522;-66
2023/06/20 03:50:52;;;;;;;12.90;11.73;;;18.80;99.90;;;19.60;100.00;97645.00;5193508;28;20784;-65
2023/06/20 03:53:25;;;;;;;12.93;11.82;;;18.70;99.90;;;19.61;100.00;97641.56;5197414;28;20222;-66
2023/06/20 03:55:58;;;;;;;12.05;11.05;;;18.80;99.90;;;19.63;100.00;97650.25;5199728;28;20225;-66
2023/06/20 03:58:33;;;;;;;12.93;11.80;;;18.80;99.90;;;19.64;100.00;97646.81;5195110;28;20287;-67
2023/06/20 04:01:06;;;;;;;13.68;12.48;;;18.80;99.90;;;19.59;100.00;97638.06;5197153;28;20643;-66
2023/06/20 04:03:39;;;;;;;14.02;12.82;;;18.70;99.90;;;19.50;100.00;97633.59;5196737;28;20615;-66
2023/06/20 04:06:13;;;;;;;14.45;13.25;;;18.60;99.90;;;19.47;100.00;97638.72;5197980;28;20705;-66
2023/06/20 04:08:46;;;;;;;13.45;12.32;;;18.60;99.90;;;19.46;100.00;97649.06;5194850;28;20678;-67
2023/06/20 04:11:19;;;;;;;14.65;13.30;;;18.70;99.90;;;19.51;100.00;97644.81;5187671;28;20225;-66
2023/06/20 04:13:54;;;;;;;14.68;13.38;;;18.70;99.90;;;19.49;100.00;97650.00;5195726;28;20223;-65
2023/06/20 04:16:27;;;;;;;14.52;13.32;;;18.70;99.90;;;19.44;100.00;97649.03;5200353;28;20236;-65
2023/06/20 04:19:00;;;;;;;13.18;12.10;;;18.70;99.90;;;19.34;100.00;97640.22;5200110;28;20225;-66
2023/06/20 04:21:34;;;;;;;12.55;11.55;;;18.60;99.90;;;19.41;100.00;97637.75;5197881;28;20586;-65
2023/06/20 04:24:07;;;;;;;14.18;12.95;;;18.60;99.90;;;19.40;100.00;97639.47;5195041;28;20228;-65
2023/06/20 04:26:40;;;;;;;14.32;13.05;;;18.60;99.90;;;19.48;100.00;97637.00;5195338;28;20221;-66
2023/06/20 04:29:15;;;;;;;14.00;12.80;;;18.70;99.90;;;19.54;100.00;97643.19;5197645;28;20222;-66
2023/06/20 04:31:51;;;;;;;13.85;12.65;;;18.80;99.90;;;19.58;100.00;97646.69;5195051;28;20271;-66
2023/06/20 04:34:25;;;;;;;12.88;11.65;;;18.80;99.90;;;19.61;100.00;97645.88;5194505;28;20229;-66
2023/06/20 04:37:01;;;;;;;11.60;10.60;;;18.90;99.90;;;19.57;100.00;97639.75;5190839;28;20710;-66
2023/06/20 04:39:35;;;;;;;12.55;11.45;;;18.80;99.90;;;19.48;100.00;97635.28;5191028;28;20239;-65
2023/06/20 04:42:09;;;;;;;11.65;10.65;;;18.70;99.90;;;19.62;100.00;97645.91;5189626;28;20230;-66
2023/06/20 04:44:44;;;;;;;11.70;10.80;;;18.90;99.90;;;19.84;100.00;97648.91;5184690;28;20237;-66
2023/06/20 04:47:17;;;;;;;10.95;10.05;;;19.20;99.90;;;20.24;100.00;97650.44;5188921;28;20796;-66
2023/06/20 04:49:51;;;;;;;10.93;10.02;;;19.60;99.90;;;20.68;100.00;97645.03;5196339;28;20665;-67
2023/06/20 04:52:24;;;;;;;9.82;9.02;;;20.10;99.90;;;21.31;100.00;97646.69;5194501;28;20237;-66
2023/06/20 04:55:02;;;;;;;8.57;7.97;;;20.70;99.90;;;21.84;100.00;97637.72;5193123;28;20713;-66
2023/06/20 04:57:35;;;;;;;8.77;8.18;;;21.20;99.90;;;22.35;100.00;97635.53;5192652;28;20229;-66
2023/06/20 05:00:13;;;;;;;8.02;7.43;;;21.80;99.90;;;22.86;100.00;97644.53;5192034;28;20217;-66
2023/06/20 05:02:46;;;;;;;9.45;8.55;;;22.20;99.90;;;23.30;97.86;97639.53;5195530;28;20284;-67
2023/06/20 05:05:20;;;;;;;8.10;7.50;;;22.50;99.90;;;23.53;90.36;97649.16;5195360;28;20582;-67
2023/06/20 05:07:53;;;;;;;7.60;6.97;;;22.50;99.90;;;23.84;90.20;97642.28;5196988;28;20232;-67
2023/06/20 05:10:27;;;;;;;7.63;7.05;;;22.70;99.90;;;23.99;87.53;97649.25;5192932;28;20264;-67
2023/06/20 05:13:00;;;;;;;8.15;7.53;;;22.80;99.90;;;24.28;87.55;97647.50;5196265;28;20221;-67
2023/06/20 05:15:34;;;;;;;9.48;8.77;;;23.10;99.90;;;24.55;86.51;97653.59;5195363;28;20226;-66
2023/06/20 05:18:08;;;;;;;8.70;8.00;;;23.10;99.90;;;24.67;85.04;97650.09;5197398;28;20645;-68
2023/06/20 05:20:41;;;;;;;8.40;7.78;;;23.20;99.90;;;24.80;83.78;97645.69;5193622;28;20309;-67
2023/06/20 05:23:14;;;;;;;8.32;7.68;;;23.40;99.90;;;24.87;82.46;97639.59;5196780;28;20233;-67
2023/06/20 05:25:47;;;;;;;9.13;8.35;;;23.50;99.90;;;25.21;81.61;97652.53;5196588;28;20283;-66
2023/06/20 05:28:20;;;;;;;8.57;7.88;;;23.60;99.90;;;25.40;80.47;97652.44;5197789;28;20272;-67
2023/06/20 05:30:55;;;;;;;7.47;6.95;;;23.80;99.90;;;25.42;77.66;97647.22;5195801;28;20225;-67
2023/06/20 05:33:28;;;;;;;7.35;6.75;;;23.90;99.90;;;25.47;78.69;97655.03;5200107;28;20302;-67
2023/06/20 05:36:01;;;;;;;7.70;7.00;;;23.90;99.90;;;25.70;79.16;97652.31;5198398;28;20283;-68
2023/06/20 05:38:36;;;;;;;7.00;6.40;;;24.10;99.90;;;26.04;76.35;97658.16;5196130;28;20225;-67
2023/06/20 05:41:14;;;;;;;6.80;6.30;;;24.20;99.90;;;26.15;76.01;97668.56;5195104;28;20256;-67
2023/06/20 05:43:47;;;;;;;6.75;6.15;;;24.30;99.90;;;26.09;74.80;97666.00;5196193;28;20216;-67
2023/06/20 05:46:21;;;;;;;6.53;6.03;;;24.50;99.90;;;26.41;75.84;97674.50;5195079;28;20672;-67
2023/06/20 05:48:59;;;;;;;6.55;6.05;;;24.80;99.90;;;26.56;73.39;97675.25;5201033;28;20240;-67
2023/06/20 05:51:32;;;;;;;6.20;5.80;;;24.90;99.90;;;26.78;73.75;97674.13;5197011;28;20229;-67
2023/06/20 05:54:07;;;;;;;6.07;5.57;;;25.00;99.90;;;26.95;73.17;97680.06;5194038;28;20710;-66
2023/06/20 05:56:40;;;;;;;6.28;5.78;;;25.10;99.90;;;27.33;71.80;97673.56;5196457;28;20608;-68
2023/06/20 05:59:13;;;;;;;6.22;5.82;;;25.40;99.90;;;27.62;69.76;97674.91;5194677;28;20793;-68
2023/06/20 06:01:48;;;;;;;5.45;5.13;;;25.40;99.90;;;27.73;68.95;97674.75;5199071;28;20221;-68
2023/06/20 06:04:22;;;;;;;4.85;4.45;;;25.60;99.90;;;28.04;67.64;97672.56;5198175;28;20311;-67
2023/06/20 06:06:55;;;;;;;6.15;5.68;;;25.90;99.90;;;28.39;64.48;97679.88;5198165;28;20229;-68
2023/06/20 06:09:28;;;;;;;5.80;5.32;;;26.00;99.90;;;28.63;62.63;97678.63;5192691;28;20225;-68
2023/06/20 06:12:01;;;;;;;5.35;4.95;;;26.20;99.90;;;28.57;61.44;97681.34;5196574;28;20220;-67
2023/06/20 06:14:34;;;;;;;5.88;5.38;;;26.00;99.90;;;28.71;59.99;97681.97;5193322;28;20225;-67
2023/06/20 06:17:09;;;;;;;8.35;7.68;;;26.20;99.90;;;29.08;58.80;97680.44;5198926;28;20222;-68
2023/06/20 06:19:42;;;;;;;5.90;5.50;;;26.30;99.90;;;28.97;60.15;97672.72;5199598;28;20720;-68
2023/06/20 06:22:15;;;;;;;4.15;3.85;;;26.40;99.90;;;29.41;57.72;97681.50;5196614;28;20225;-66
2023/06/20 06:24:48;;;;;;;3.40;3.10;;;26.80;99.90;;;29.51;54.90;97677.78;5189859;28;20221;-67
2023/06/20 06:27:22;;;;;;;5.50;4.15;;;27.00;99.90;;;30.05;53.29;97685.38;5194359;28;20228;-67
2023/06/20 06:29:55;;;;;;;4.07;3.78;;;27.30;99.90;;;30.43;53.22;97688.00;5193821;28;20970;-68
2023/06/20 06:32:30;;;;;;;4.35;3.95;;;27.40;99.90;;;30.55;51.21;97697.38;5196624;28;20280;-67
2023/06/20 06:35:05;;;;;;;5.50;4.15;;;27.60;99.90;;;30.71;50.78;97699.59;5190687;28;20316;-67
2023/06/20 06:37:40;;;;;;;4.45;4.05;;;27.70;99.90;;;30.94;50.57;97701.66;5193879;28;20232;-68
2023/06/20 06:40:14;;;;;;;4.68;4.30;;;27.90;99.90;;;31.00;50.37;97691.84;5196736;28;20225;-67
2023/06/20 06:42:47;;;;;;;5.57;5.10;;;28.00;99.90;;;31.16;48.99;97693.13;5192500;28;20276;-69
2023/06/20 06:45:20;;;;;;;4.30;3.90;;;28.20;99.90;;;31.35;47.77;97686.44;5188319;28;20820;-67
2023/06/20 06:47:55;;;;;;;4.43;3.63;;;28.40;99.90;;;31.39;45.78;97693.38;5196777;28;20255;-67
2023/06/20 06:50:29;;;;;;;4.05;3.30;;;28.60;99.50;;;31.53;46.36;97697.38;5194833;28;20247;-66
2023/06/20 06:53:02;;;;;;;3.40;3.10;;;28.70;99.30;;;32.02;44.90;97693.25;5194441;28;20295;-66
2023/06/20 06:55:35;;;;;;;3.35;3.10;;;28.90;99.10;;;31.92;46.05;97689.19;5195516;28;20713;-68
2023/06/20 06:58:08;;;;;;;4.00;3.65;;;29.10;98.80;;;31.98;44.13;97686.34;5189942;28;20302;-68
2023/06/20 07:00:41;;;;;;;3.05;2.83;;;29.20;97.40;;;32.15;42.47;97694.59;5196832;28;20221;-66
2023/06/20 07:03:16;;;;;;;3.53;3.22;;;29.20;96.00;;;32.51;42.85;97691.72;5190681;28;20308;-68
2023/06/20 07:05:49;;;;;;;3.50;2.92;;;29.30;96.70;;;32.64;42.31;97685.06;5191467;28;20233;-67
2023/06/20 07:08:22;;;;;;;3.58;2.88;;;29.50;95.20;;;32.53;41.53;97689.84;5197878;28;25624;-68
2023/06/20 07:10:55;;;;;;;3.78;2.90;;;29.70;94.60;;;32.52;43.20;97694.28;5197059;28;20267;-68
2023/06/20 07:13:28;;;;;;;3.53;3.22;;;29.70;95.30;;;32.70;41.90;97687.50;5192841;28;20669;-67
2023/06/20 07:16:02;;;;;;;3.50;3.15;;;29.90;94.20;;;32.85;42.24;97688.75;5198727;28;20251;-68
2023/06/20 07:18:36;;;;;;;3.50;3.20;;;29.90;94.70;;;32.65;42.63;97678.88;5194027;28;20233;-68
2023/06/20 07:21:09;;;;;;;3.85;3.45;;;30.00;94.70;;;32.95;41.73;97673.41;5195042;28;20228;-68
2023/06/20 07:23:43;;;;;;;5.53;3.22;;;30.10;94.60;;;33.06;41.96;97679.22;5195105;28;20225;-67
2023/06/20 07:26:16;;;;;;;5.00;3.50;;;30.20;94.40;;;33.01;41.16;97686.44;5193520;28;20225;-68
2023/06/20 07:28:49;;;;;;;3.97;3.67;;;30.40;93.50;;;33.05;42.05;97685.44;5183330;28;20625;-68
2023/06/20 07:31:22;;;;;;;4.00;3.42;;;30.40;93.30;;;33.11;41.65;97682.56;5186294;28;20221;-67
2023/06/20 07:33:57;;;;;;;3.92;3.42;;;30.50;93.10;;;32.91;42.10;97669.16;5188004;28;20252;-68
2023/06/20 07:36:30;;;;;;;4.40;3.78;;;30.40;94.00;;;33.16;40.77;97677.06;5191547;28;20236;-68
2023/06/20 07:39:03;;;;;;;4.85;3.53;;;30.50;92.80;;;32.87;41.32;97678.97;5191930;28;20221;-67
2023/06/20 07:41:39;;;;;;;4.15;3.75;;;30.50;92.50;;;33.18;41.37;97672.59;5195992;28;20221;-66
2023/06/20 07:44:13;;;;;;;6.35;3.78;;;30.60;92.70;;;33.38;39.47;97678.00;5194054;28;20228;-67
2023/06/20 07:46:46;;;;;;;5.53;3.97;;;31.00;91.20;;;33.30;39.93;97672.13;5188866;28;20290;-68
2023/06/20 07:49:20;;;;;;;4.07;3.65;;;30.90;91.20;;;33.48;40.20;97669.69;5195043;28;20287;-67
2023/06/20 07:51:53;;;;;;;5.90;3.80;;;30.70;92.30;;;33.47;39.65;97673.28;5195982;28;20279;-68
2023/06/20 07:54:26;;;;;;;4.20;3.80;;;30.80;92.10;;;33.35;40.57;97674.63;5197975;28;20241;-68
2023/06/20 07:57:00;;;;;;;4.65;3.83;;;30.60;92.30;;;33.39;40.29;97676.22;5194561;28;20287;-68
2023/06/20 07:59:33;;;;;;;4.63;3.95;;;30.60;92.30;;;33.63;40.88;97677.97;5188891;28;20229;-68
2023/06/20 08:02:06;;;;;;;4.85;4.25;;;30.80;92.10;;;33.91;39.60;97663.66;5189500;28;20225;-68
2023/06/20 08:04:41;;;;;;;5.03;4.05;;;31.20;91.10;;;33.96;39.73;97666.94;5183969;28;20658;-68
2023/06/20 08:07:14;;;;;;;5.22;3.95;;;31.00;91.70;;;34.02;39.05;97666.69;5185675;28;20221;-68
2023/06/20 08:09:47;;;;;;;4.72;4.25;;;31.00;91.50;;;33.66;40.28;97665.53;5186874;28;20287;-69
2023/06/20 08:12:20;;;;;;;5.25;4.20;;;30.90;92.10;;;33.77;39.15;97661.53;5191552;28;20217;-68
2023/06/20 08:14:53;;;;;;;5.28;3.97;;;30.70;91.70;;;33.73;40.82;97664.34;5188309;28;20733;-67
2023/06/20 08:17:26;;;;;;;4.88;4.25;;;30.80;92.30;;;33.59;38.88;97663.09;5190482;28;20225;-68
2023/06/20 08:20:05;;;;;;;6.03;4.00;;;30.80;90.80;;;33.55;39.01;97656.19;5195999;28;20222;-69
2023/06/20 08:22:38;;;;;;;5.50;4.20;;;30.90;90.50;;;33.62;38.97;97667.41;5193479;28;20275;-69
2023/06/20 08:25:12;;;;;;;6.35;3.65;;;31.10;90.30;;;33.64;40.60;97665.56;5190565;28;20245;-67
2023/06/20 08:27:45;;;;;;;4.95;4.00;;;31.30;90.90;;;33.64;39.81;97662.94;5193720;28;20812;-68
2023/06/20 08:30:18;;;;;;;5.07;4.35;;;31.30;90.30;;;33.35;39.22;97656.94;5189805;28;20225;-68
2023/06/20 08:32:51;;;;;;;5.22;4.50;;;31.20;90.30;;;33.15;40.18;97657.66;5191681;28;20262;-68
2023/06/20 08:35:26;;;;;;;4.85;4.45;;;30.90;90.00;;;33.09;40.18;97652.59;5197141;28;20221;-68
2023/06/20 08:37:59;;;;;;;6.45;4.10;;;30.90;90.00;;;33.20;38.84;97650.41;5195885;28;20234;-67
2023/06/20 08:40:33;;;;;;;5.75;4.30;;;31.30;88.40;;;33.24;39.71;97651.16;5193493;28;20575;-67
2023/06/20 08:43:07;;;;;;;4.78;4.28;;;31.20;89.10;;;33.04;39.18;97648.41;5194083;28;20731;-66
2023/06/20 08:45:40;;;;;;;4.88;4.38;;;31.00;89.00;;;33.16;40.26;97655.88;5195036;28;20225;-68
2023/06/20 08:48:14;;;;;;;6.03;4.53;;;31.30;89.70;;;33.17;39.18;97650.53;5191698;28;20221;-68
2023/06/20 08:50:49;;;;;;;5.40;4.57;;;31.50;88.00;;;33.18;39.79;97639.00;5191177;28;20234;-66
2023/06/20 08:53:23;;;;;;;6.22;4.38;;;31.60;88.80;;;33.19;40.43;97648.72;5191516;28;20964;-67
2023/06/20 08:55:57;;;;;;;4.50;4.10;;;31.80;88.40;;;33.26;40.14;97644.03;5183727;28;20225;-68
2023/06/20 08:58:32;;;;;;;5.38;4.63;;;31.90;88.20;;;33.36;39.70;97645.38;5193380;28;20287;-68
2023/06/20 09:01:07;;;;;;;5.25;4.32;;;32.00;85.90;;;33.46;38.46;97643.28;5190472;28;20216;-68
2023/06/20 09:03:40;;;;;;;6.28;4.72;;;32.10;85.00;;;33.62;38.75;97641.78;5195159;28;20314;-69
2023/06/20 09:06:15;;;;;;;5.35;4.60;;;32.10;86.00;;;33.50;38.59;97636.91;5188197;28;20218;-67
2023/06/20 09:08:48;;;;;;;5.93;4.90;;;32.10;85.60;;;33.53;38.43;97634.19;5194946;28;20232;-66
2023/06/20 09:11:26;;;;;;;5.65;4.30;;;31.90;84.60;;;33.48;39.45;97633.47;5194959;28;20225;-67
2023/06/20 09:14:01;;;;;;;6.63;5.07;;;31.90;88.20;;;33.46;39.47;97630.00;5192987;28;20213;-68
2023/06/20 09:16:35;;;;;;;5.43;4.80;;;32.20;85.00;;;33.32;38.65;97627.03;5188991;28;20295;-67
2023/06/20 09:19:08;;;;;;;5.30;4.78;;;31.90;84.60;;;33.38;38.91;97627.66;5192135;28;20221;-68
2023/06/20 09:21:42;;;;;;;6.75;4.63;;;32.10;84.80;;;33.34;38.39;97630.50;5192700;28;20233;-67
2023/06/20 09:24:19;;;;;;;6.40;5.18;;;32.20;82.80;;;33.38;38.16;97626.78;5191276;28;20268;-68
2023/06/20 09:26:52;;;;;;;5.88;5.22;;;32.20;82.60;;;33.31;37.82;97626.19;5196125;28;20307;-67
2023/06/20 09:29:25;;;;;;;6.03;5.45;;;32.00;81.90;;;33.32;38.58;97627.03;5192541;28;20225;-68
2023/06/20 09:31:58;;;;;;;5.97;4.82;;;32.50;81.80;;;33.32;38.46;97616.44;5188361;28;20255;-67
2023/06/20 09:34:38;;;;;;;7.13;5.47;;;32.20;83.20;;;33.11;37.66;97613.69;5188641;28;20716;-67
2023/06/20 09:37:16;;;;;;;5.95;4.70;;;32.00;82.00;;;33.38;36.46;97617.06;5189265;28;20639;-68
2023/06/20 09:39:49;;;;;;;5.63;5.13;;;32.60;79.40;;;33.47;37.15;97610.53;5193850;28;20228;-67
2023/06/20 09:42:24;;;;;;;5.95;5.35;;;32.60;80.00;;;33.53;36.19;97606.81;5191475;28;20217;-68
2023/06/20 09:44:57;;;;;;;7.20;5.10;;;32.60;77.70;;;33.56;36.31;97607.53;5192967;28;20593;-67
2023/06/20 09:47:31;;;;;;;5.28;4.78;;;32.60;77.40;;;33.48;36.27;97601.69;5189753;28;20217;-67
2023/06/20 09:50:08;;;;;;;5.68;5.07;;;32.40;78.70;;;33.51;35.10;97605.97;5194550;28;20225;-67
2023/06/20 09:52:47;;;;;;;5.57;5.07;;;32.40;77.20;;;33.44;37.20;97600.03;5195589;28;20723;-67
2023/06/20 09:55:23;;;;;;;5.43;4.93;;;32.40;79.50;;;33.21;35.55;97598.28;5193961;28;20229;-67
2023/06/20 09:57:59;;;;;;;6.10;5.13;;;32.20;78.20;;;33.26;35.36;97590.16;5196668;28;20645;-67
2023/06/20 10:00:34;;;;;;;7.18;5.50;;;32.20;77.10;;;33.27;34.43;97587.44;5193564;28;20274;-66
2023/06/20 10:03:09;;;;;;;5.95;4.95;;;32.30;75.00;;;33.48;33.88;97585.78;5197010;28;20227;-68
2023/06/20 10:05:46;;;;;;;5.13;4.72;;;32.60;73.50;;;33.50;33.04;97589.19;5199821;28;20228;-66
2023/06/20 10:08:21;;;;;;;6.03;5.40;;;32.60;71.40;;;33.56;33.74;97588.97;5198269;28;20216;-67
2023/06/20 10:10:55;;;;;;;5.68;5.13;;;32.60;72.70;;;33.65;32.81;97587.75;5197278;28;20790;-67
2023/06/20 10:13:29;;;;;;;5.68;4.95;;;32.70;72.40;;;33.82;31.86;97579.97;5195835;28;20304;-67
2023/06/20 10:16:04;;;;;;;6.97;5.00;;;32.90;70.30;;;33.79;32.71;97582.75;5195904;28;20229;-68
2023/06/20 10:18:38;;;;;;;5.70;5.20;;;33.00;70.50;;;33.77;33.03;97576.66;5199199;28;20255;-66
2023/06/20 10:21:15;;;;;;;7.05;4.85;;;32.90;70.60;;;33.67;32.06;97579.75;5199318;28;20811;-67
2023/06/20 10:23:50;;;;;;;5.32;4.72;;;32.90;70.10;;;33.69;32.62;97580.56;5193859;28;20279;-66
2023/06/20 10:26:33;;;;;;;5.57;4.55;;;32.90;70.10;;;33.63;30.68;97563.97;5200806;28;20328;-67
2023/06/20 10:29:06;;;;;;;5.20;4.70;;;32.90;67.00;;;33.72;30.32;97568.03;5193310;28;20689;-67
2023/06/20 10:31:55;;;;;;;7.25;4.60;;;32.80;66.70;;;33.72;30.49;97569.81;5191012;28;20546;-67
2023/06/20 10:34:36;;;;;;;5.15;4.75;;;32.70;66.80;;;33.79;31.96;97564.19;5186106;28;20230;-66
2023/06/20 10:37:14;;;;;;;5.15;4.65;;;33.00;67.70;;;33.77;30.67;97565.19;5198527;28;20229;-67
2023/06/20 10:39:57;;;;;;;4.88;4.40;;;32.80;67.70;;;33.85;31.32;97561.31;5191155;28;20320;-67
2023/06/20 10:42:43;;;;;;;4.72;4.32;;;33.00;67.30;;;33.77;30.50;97563.41;5198447;28;21885;-66
2023/06/20 10:45:21;;;;;;;4.90;4.40;;;33.00;65.80;;;33.77;31.15;97560.75;5192617;28;20221;-66
2023/06/20 10:47:55;;;;;;;5.10;4.70;;;32.90;66.40;;;33.75;31.27;97562.59;5197836;28;20619;-66